West Fort Ann, New York
Current Conditions -  °F | °C
As of 6:53 PM on Sunday 23 Nov 2014 (Local Time) from KGFL Reporting Station
Overcast Overcast  
Wind Chill:   Ceiling: 7500
Heat Index:   Visibility: 10mi
Dew Point:   Wind: 3mph
Humidity: 80%   Direction: 50°NE
Pressure: 30.06"   Gusts: NA
Location:  43.4639°N, 73.5204°W
Report Text: KGFL 232353Z AUTO 05003KT 10SM FEW048 OVC075 06/03 A3006 RMK AO2 RAB11E25 SLP187 P0000 60000 T00610028 10117 20056 57001
Loading
Personal Weather Stations






























Interactive Weather Map New forecast layout! Learn more

10-Day Weather Forecast

Advertisements
Track Severe Weather on mobile